sensor_id;sensor_type;location;lat;lon;timestamp;temperature;humidity
78649;DHT22;67962;47.310;9.642;2023-05-07T00:01:42;16.60;67.70
78649;DHT22;67962;47.310;9.642;2023-05-07T00:04:08;16.50;67.30
78649;DHT22;67962;47.310;9.642;2023-05-07T00:06:34;16.50;67.40
78649;DHT22;67962;47.310;9.642;2023-05-07T00:09:00;16.50;67.50
78649;DHT22;67962;47.310;9.642;2023-05-07T00:11:27;16.50;67.40
78649;DHT22;67962;47.310;9.642;2023-05-07T00:13:53;16.50;67.30
78649;DHT22;67962;47.310;9.642;2023-05-07T00:16:18;16.40;67.60
78649;DHT22;67962;47.310;9.642;2023-05-07T00:18:44;16.40;67.50
78649;DHT22;67962;47.310;9.642;2023-05-07T00:21:11;16.40;67.40
78649;DHT22;67962;47.310;9.642;2023-05-07T00:23:36;16.40;67.20
78649;DHT22;67962;47.310;9.642;2023-05-07T00:26:03;16.40;67.20
78649;DHT22;67962;47.310;9.642;2023-05-07T00:28:29;16.40;67.20
78649;DHT22;67962;47.310;9.642;2023-05-07T00:30:55;16.30;67.50
78649;DHT22;67962;47.310;9.642;2023-05-07T00:33:21;16.30;67.60
78649;DHT22;67962;47.310;9.642;2023-05-07T00:35:48;16.20;68.20
78649;DHT22;67962;47.310;9.642;2023-05-07T00:38:14;16.10;68.60
78649;DHT22;67962;47.310;9.642;2023-05-07T00:40:39;16.10;68.50
78649;DHT22;67962;47.310;9.642;2023-05-07T00:43:06;16.10;68.40
78649;DHT22;67962;47.310;9.642;2023-05-07T00:45:33;16.00;68.40
78649;DHT22;67962;47.310;9.642;2023-05-07T00:48:00;16.00;68.60
78649;DHT22;67962;47.310;9.642;2023-05-07T00:50:28;16.00;68.70
78649;DHT22;67962;47.310;9.642;2023-05-07T00:52:54;16.00;68.70
78649;DHT22;67962;47.310;9.642;2023-05-07T00:55:21;16.10;68.50
78649;DHT22;67962;47.310;9.642;2023-05-07T00:57:47;16.10;68.40
78649;DHT22;67962;47.310;9.642;2023-05-07T01:00:13;16.20;68.40
78649;DHT22;67962;47.310;9.642;2023-05-07T01:02:39;16.00;68.40
78649;DHT22;67962;47.310;9.642;2023-05-07T01:05:13;16.00;68.60
78649;DHT22;67962;47.310;9.642;2023-05-07T01:07:40;15.90;68.50
78649;DHT22;67962;47.310;9.642;2023-05-07T01:10:08;15.90;68.40
78649;DHT22;67962;47.310;9.642;2023-05-07T01:12:35;15.90;68.50
78649;DHT22;67962;47.310;9.642;2023-05-07T01:15:03;15.90;68.40
78649;DHT22;67962;47.310;9.642;2023-05-07T01:17:29;15.80;68.20
78649;DHT22;67962;47.310;9.642;2023-05-07T01:19:58;15.70;68.20
78649;DHT22;67962;47.310;9.642;2023-05-07T01:22:35;15.70;68.80
78649;DHT22;67962;47.310;9.642;2023-05-07T01:25:04;15.80;68.80
78649;DHT22;67962;47.310;9.642;2023-05-07T01:27:30;15.80;69.10
78649;DHT22;67962;47.310;9.642;2023-05-07T01:29:56;15.80;69.30
78649;DHT22;67962;47.310;9.642;2023-05-07T01:32:35;15.70;69.80
78649;DHT22;67962;47.310;9.642;2023-05-07T01:35:05;15.60;69.90
78649;DHT22;67962;47.310;9.642;2023-05-07T01:37:33;15.50;70.10
78649;DHT22;67962;47.310;9.642;2023-05-07T01:39:59;15.50;70.40
78649;DHT22;67962;47.310;9.642;2023-05-07T01:42:26;15.50;70.10
78649;DHT22;67962;47.310;9.642;2023-05-07T01:44:51;15.40;70.30
78649;DHT22;67962;47.310;9.642;2023-05-07T01:47:17;15.30;70.40
78649;DHT22;67962;47.310;9.642;2023-05-07T01:49:44;15.30;70.60
78649;DHT22;67962;47.310;9.642;2023-05-07T01:52:10;15.40;70.60
78649;DHT22;67962;47.310;9.642;2023-05-07T01:54:37;15.40;70.50
78649;DHT22;67962;47.310;9.642;2023-05-07T01:57:03;15.30;70.60
78649;DHT22;67962;47.310;9.642;2023-05-07T01:59:29;15.30;70.70
78649;DHT22;67962;47.310;9.642;2023-05-07T02:01:54;15.30;70.80
78649;DHT22;67962;47.310;9.642;2023-05-07T02:04:20;15.40;70.20
78649;DHT22;67962;47.310;9.642;2023-05-07T02:06:46;15.40;69.90
78649;DHT22;67962;47.310;9.642;2023-05-07T02:09:11;15.30;69.70
78649;DHT22;67962;47.310;9.642;2023-05-07T02:11:37;15.30;69.70
78649;DHT22;67962;47.310;9.642;2023-05-07T02:14:03;15.20;69.60
78649;DHT22;67962;47.310;9.642;2023-05-07T02:16:28;15.30;69.80
78649;DHT22;67962;47.310;9.642;2023-05-07T02:18:54;15.40;69.60
78649;DHT22;67962;47.310;9.642;2023-05-07T02:21:20;15.40;69.30
78649;DHT22;67962;47.310;9.642;2023-05-07T02:23:46;15.40;69.30
78649;DHT22;67962;47.310;9.642;2023-05-07T02:26:11;15.40;69.40
78649;DHT22;67962;47.310;9.642;2023-05-07T02:28:37;15.40;69.30
78649;DHT22;67962;47.310;9.642;2023-05-07T02:31:03;15.30;69.20
78649;DHT22;67962;47.310;9.642;2023-05-07T02:33:29;15.30;69.50
78649;DHT22;67962;47.310;9.642;2023-05-07T02:35:56;15.10;69.60
78649;DHT22;67962;47.310;9.642;2023-05-07T02:38:22;15.00;70.00
78649;DHT22;67962;47.310;9.642;2023-05-07T02:40:48;15.00;70.10
78649;DHT22;67962;47.310;9.642;2023-05-07T02:43:13;15.00;70.30
78649;DHT22;67962;47.310;9.642;2023-05-07T02:45:39;15.00;70.10
78649;DHT22;67962;47.310;9.642;2023-05-07T02:48:05;15.00;70.10
78649;DHT22;67962;47.310;9.642;2023-05-07T02:50:31;15.00;69.60
78649;DHT22;67962;47.310;9.642;2023-05-07T02:52:58;15.00;69.30
78649;DHT22;67962;47.310;9.642;2023-05-07T02:55:24;15.10;69.50
78649;DHT22;67962;47.310;9.642;2023-05-07T02:57:50;15.10;69.30
78649;DHT22;67962;47.310;9.642;2023-05-07T03:00:18;15.10;68.60
78649;DHT22;67962;47.310;9.642;2023-05-07T03:02:44;15.10;68.60
78649;DHT22;67962;47.310;9.642;2023-05-07T03:05:10;15.10;68.70
78649;DHT22;67962;47.310;9.642;2023-05-07T03:07:36;15.10;68.60
78649;DHT22;67962;47.310;9.642;2023-05-07T03:10:03;15.00;68.80
78649;DHT22;67962;47.310;9.642;2023-05-07T03:12:29;14.90;69.10
78649;DHT22;67962;47.310;9.642;2023-05-07T03:14:55;14.90;69.40
78649;DHT22;67962;47.310;9.642;2023-05-07T03:17:21;14.90;69.50
78649;DHT22;67962;47.310;9.642;2023-05-07T03:19:46;14.90;69.40
78649;DHT22;67962;47.310;9.642;2023-05-07T03:22:12;14.90;69.30
78649;DHT22;67962;47.310;9.642;2023-05-07T03:24:38;14.90;69.30
78649;DHT22;67962;47.310;9.642;2023-05-07T03:27:03;15.00;69.10
78649;DHT22;67962;47.310;9.642;2023-05-07T03:29:29;15.00;68.70
78649;DHT22;67962;47.310;9.642;2023-05-07T03:31:55;15.00;68.20
78649;DHT22;67962;47.310;9.642;2023-05-07T03:34:20;14.90;68.50
78649;DHT22;67962;47.310;9.642;2023-05-07T03:36:50;14.90;68.60
78649;DHT22;67962;47.310;9.642;2023-05-07T03:39:16;14.90;68.60
78649;DHT22;67962;47.310;9.642;2023-05-07T03:41:42;14.80;69.30
78649;DHT22;67962;47.310;9.642;2023-05-07T03:44:08;14.70;69.50
78649;DHT22;67962;47.310;9.642;2023-05-07T03:46:34;14.70;69.50
78649;DHT22;67962;47.310;9.642;2023-05-07T03:49:00;14.80;69.20
78649;DHT22;67962;47.310;9.642;2023-05-07T03:51:25;14.70;69.20
78649;DHT22;67962;47.310;9.642;2023-05-07T03:53:52;14.70;69.20
78649;DHT22;67962;47.310;9.642;2023-05-07T03:56:22;14.70;69.00
78649;DHT22;67962;47.310;9.642;2023-05-07T03:58:48;14.70;69.10
78649;DHT22;67962;47.310;9.642;2023-05-07T04:01:14;14.70;68.70
78649;DHT22;67962;47.310;9.642;2023-05-07T04:03:40;14.60;68.60
78649;DHT22;67962;47.310;9.642;2023-05-07T04:06:05;14.50;68.80
78649;DHT22;67962;47.310;9.642;2023-05-07T04:08:31;14.50;68.90
78649;DHT22;67962;47.310;9.642;2023-05-07T04:10:58;14.60;69.00
78649;DHT22;67962;47.310;9.642;2023-05-07T04:13:24;14.60;68.90
78649;DHT22;67962;47.310;9.642;2023-05-07T04:15:51;14.70;69.00
78649;DHT22;67962;47.310;9.642;2023-05-07T04:18:17;14.60;69.20
78649;DHT22;67962;47.310;9.642;2023-05-07T04:20:43;14.50;69.50
78649;DHT22;67962;47.310;9.642;2023-05-07T04:23:08;14.50;69.80
78649;DHT22;67962;47.310;9.642;2023-05-07T04:25:34;14.50;69.80
78649;DHT22;67962;47.310;9.642;2023-05-07T04:28:00;14.40;70.00
78649;DHT22;67962;47.310;9.642;2023-05-07T04:30:26;14.40;70.10
78649;DHT22;67962;47.310;9.642;2023-05-07T04:32:52;14.40;69.60
78649;DHT22;67962;47.310;9.642;2023-05-07T04:35:18;14.40;69.90
78649;DHT22;67962;47.310;9.642;2023-05-07T04:37:44;14.40;69.90
78649;DHT22;67962;47.310;9.642;2023-05-07T04:40:10;14.50;69.90
78649;DHT22;67962;47.310;9.642;2023-05-07T04:42:36;14.50;69.70
78649;DHT22;67962;47.310;9.642;2023-05-07T04:45:02;14.60;69.90
78649;DHT22;67962;47.310;9.642;2023-05-07T04:47:28;14.60;70.30
78649;DHT22;67962;47.310;9.642;2023-05-07T04:49:53;14.50;70.40
78649;DHT22;67962;47.310;9.642;2023-05-07T04:52:19;14.40;70.60
78649;DHT22;67962;47.310;9.642;2023-05-07T04:54:45;14.40;70.90
78649;DHT22;67962;47.310;9.642;2023-05-07T04:57:11;14.50;70.70
78649;DHT22;67962;47.310;9.642;2023-05-07T04:59:37;14.60;70.60
78649;DHT22;67962;47.310;9.642;2023-05-07T05:02:03;14.70;70.30
78649;DHT22;67962;47.310;9.642;2023-05-07T05:04:29;14.70;69.70
78649;DHT22;67962;47.310;9.642;2023-05-07T05:06:55;14.70;69.70
78649;DHT22;67962;47.310;9.642;2023-05-07T05:09:21;14.70;70.00
78649;DHT22;67962;47.310;9.642;2023-05-07T05:11:47;14.80;69.80
78649;DHT22;67962;47.310;9.642;2023-05-07T05:14:13;14.80;69.70
78649;DHT22;67962;47.310;9.642;2023-05-07T05:16:38;15.00;69.90
78649;DHT22;67962;47.310;9.642;2023-05-07T05:19:04;15.00;70.00
78649;DHT22;67962;47.310;9.642;2023-05-07T05:21:31;15.10;69.60
78649;DHT22;67962;47.310;9.642;2023-05-07T05:23:57;15.30;69.30
78649;DHT22;67962;47.310;9.642;2023-05-07T05:26:23;15.40;68.90
78649;DHT22;67962;47.310;9.642;2023-05-07T05:28:49;15.50;69.00
78649;DHT22;67962;47.310;9.642;2023-05-07T05:31:16;15.60;69.20
78649;DHT22;67962;47.310;9.642;2023-05-07T05:33:42;15.60;69.60
78649;DHT22;67962;47.310;9.642;2023-05-07T05:36:09;15.60;69.90
78649;DHT22;67962;47.310;9.642;2023-05-07T05:38:35;15.70;70.10
78649;DHT22;67962;47.310;9.642;2023-05-07T05:41:01;15.90;70.60
78649;DHT22;67962;47.310;9.642;2023-05-07T05:43:27;16.20;70.00
78649;DHT22;67962;47.310;9.642;2023-05-07T05:45:52;16.40;69.00
78649;DHT22;67962;47.310;9.642;2023-05-07T05:48:18;16.60;68.40
78649;DHT22;67962;47.310;9.642;2023-05-07T05:50:44;16.90;68.40
78649;DHT22;67962;47.310;9.642;2023-05-07T05:53:09;17.20;68.00
78649;DHT22;67962;47.310;9.642;2023-05-07T05:55:35;17.40;67.60
78649;DHT22;67962;47.310;9.642;2023-05-07T05:58:01;17.50;67.90
78649;DHT22;67962;47.310;9.642;2023-05-07T06:00:29;17.60;66.80
78649;DHT22;67962;47.310;9.642;2023-05-07T06:02:55;17.80;66.30
78649;DHT22;67962;47.310;9.642;2023-05-07T06:05:21;18.20;66.00
78649;DHT22;67962;47.310;9.642;2023-05-07T06:07:46;18.50;64.90
78649;DHT22;67962;47.310;9.642;2023-05-07T06:10:12;18.70;63.80
78649;DHT22;67962;47.310;9.642;2023-05-07T06:12:38;18.90;63.30
78649;DHT22;67962;47.310;9.642;2023-05-07T06:15:04;19.10;61.50
78649;DHT22;67962;47.310;9.642;2023-05-07T06:17:30;19.20;61.40
78649;DHT22;67962;47.310;9.642;2023-05-07T06:19:56;19.20;59.50
78649;DHT22;67962;47.310;9.642;2023-05-07T06:22:21;19.20;59.60
78649;DHT22;67962;47.310;9.642;2023-05-07T06:24:47;19.20;60.10
78649;DHT22;67962;47.310;9.642;2023-05-07T06:27:13;19.10;59.50
78649;DHT22;67962;47.310;9.642;2023-05-07T06:29:38;19.20;58.90
78649;DHT22;67962;47.310;9.642;2023-05-07T06:32:11;19.10;58.10
78649;DHT22;67962;47.310;9.642;2023-05-07T06:34:39;19.20;58.80
78649;DHT22;67962;47.310;9.642;2023-05-07T06:37:05;19.20;59.30
78649;DHT22;67962;47.310;9.642;2023-05-07T06:39:31;19.50;56.70
78649;DHT22;67962;47.310;9.642;2023-05-07T06:41:57;19.50;57.10
78649;DHT22;67962;47.310;9.642;2023-05-07T06:44:23;19.60;56.10
78649;DHT22;67962;47.310;9.642;2023-05-07T06:46:49;19.70;55.10
78649;DHT22;67962;47.310;9.642;2023-05-07T06:49:14;19.70;55.10
78649;DHT22;67962;47.310;9.642;2023-05-07T06:51:41;19.60;55.40
78649;DHT22;67962;47.310;9.642;2023-05-07T06:54:06;19.50;57.10
78649;DHT22;67962;47.310;9.642;2023-05-07T06:56:33;19.60;56.90
78649;DHT22;67962;47.310;9.642;2023-05-07T06:59:00;19.50;56.00
78649;DHT22;67962;47.310;9.642;2023-05-07T07:01:27;19.40;56.20
78649;DHT22;67962;47.310;9.642;2023-05-07T07:03:53;19.50;56.80
78649;DHT22;67962;47.310;9.642;2023-05-07T07:06:19;19.60;55.50
78649;DHT22;67962;47.310;9.642;2023-05-07T07:08:44;19.70;54.70
78649;DHT22;67962;47.310;9.642;2023-05-07T07:11:10;19.70;55.30
78649;DHT22;67962;47.310;9.642;2023-05-07T07:13:36;19.70;55.40
78649;DHT22;67962;47.310;9.642;2023-05-07T07:16:02;19.70;53.70
78649;DHT22;67962;47.310;9.642;2023-05-07T07:18:28;19.60;53.80
78649;DHT22;67962;47.310;9.642;2023-05-07T07:20:54;19.70;53.30
78649;DHT22;67962;47.310;9.642;2023-05-07T07:23:20;19.80;52.60
78649;DHT22;67962;47.310;9.642;2023-05-07T07:25:45;19.80;53.80
78649;DHT22;67962;47.310;9.642;2023-05-07T07:28:11;19.80;54.00
78649;DHT22;67962;47.310;9.642;2023-05-07T07:30:37;19.80;55.10
78649;DHT22;67962;47.310;9.642;2023-05-07T07:33:03;19.70;52.70
78649;DHT22;67962;47.310;9.642;2023-05-07T07:35:29;19.60;53.90
78649;DHT22;67962;47.310;9.642;2023-05-07T07:37:55;19.60;55.90
78649;DHT22;67962;47.310;9.642;2023-05-07T07:40:21;19.50;56.40
78649;DHT22;67962;47.310;9.642;2023-05-07T07:42:47;19.50;56.90
78649;DHT22;67962;47.310;9.642;2023-05-07T07:45:13;19.50;56.40
78649;DHT22;67962;47.310;9.642;2023-05-07T07:47:41;19.60;57.10
78649;DHT22;67962;47.310;9.642;2023-05-07T07:50:07;19.70;55.80
78649;DHT22;67962;47.310;9.642;2023-05-07T07:52:33;19.70;55.40
78649;DHT22;67962;47.310;9.642;2023-05-07T07:54:59;19.90;55.80
78649;DHT22;67962;47.310;9.642;2023-05-07T07:57:25;20.10;54.80
78649;DHT22;67962;47.310;9.642;2023-05-07T07:59:51;20.10;54.50
78649;DHT22;67962;47.310;9.642;2023-05-07T08:02:17;20.10;54.70
78649;DHT22;67962;47.310;9.642;2023-05-07T08:04:43;20.10;54.70
78649;DHT22;67962;47.310;9.642;2023-05-07T08:07:12;20.10;54.70
78649;DHT22;67962;47.310;9.642;2023-05-07T08:09:38;20.10;55.30
78649;DHT22;67962;47.310;9.642;2023-05-07T08:12:08;20.00;56.00
78649;DHT22;67962;47.310;9.642;2023-05-07T08:14:34;20.10;56.20
78649;DHT22;67962;47.310;9.642;2023-05-07T08:17:00;20.10;55.80
78649;DHT22;67962;47.310;9.642;2023-05-07T08:19:26;20.20;55.20
78649;DHT22;67962;47.310;9.642;2023-05-07T08:21:52;20.30;55.00
78649;DHT22;67962;47.310;9.642;2023-05-07T08:24:18;20.40;54.30
78649;DHT22;67962;47.310;9.642;2023-05-07T08:26:44;20.40;53.60
78649;DHT22;67962;47.310;9.642;2023-05-07T08:29:10;20.50;52.10
78649;DHT22;67962;47.310;9.642;2023-05-07T08:31:36;20.50;50.60
78649;DHT22;67962;47.310;9.642;2023-05-07T08:34:03;20.40;51.70
78649;DHT22;67962;47.310;9.642;2023-05-07T08:36:29;20.40;51.90
78649;DHT22;67962;47.310;9.642;2023-05-07T08:38:55;20.50;52.60
78649;DHT22;67962;47.310;9.642;2023-05-07T08:41:21;20.50;51.70
78649;DHT22;67962;47.310;9.642;2023-05-07T08:43:48;20.60;51.10
78649;DHT22;67962;47.310;9.642;2023-05-07T08:46:21;20.70;51.30
78649;DHT22;67962;47.310;9.642;2023-05-07T08:48:51;20.90;50.90
78649;DHT22;67962;47.310;9.642;2023-05-07T08:51:19;20.90;50.40
78649;DHT22;67962;47.310;9.642;2023-05-07T08:53:46;21.00;50.80
78649;DHT22;67962;47.310;9.642;2023-05-07T08:56:14;21.10;50.30
78649;DHT22;67962;47.310;9.642;2023-05-07T08:58:42;21.20;50.00
78649;DHT22;67962;47.310;9.642;2023-05-07T09:01:09;21.40;49.50
78649;DHT22;67962;47.310;9.642;2023-05-07T09:03:37;21.60;47.90
78649;DHT22;67962;47.310;9.642;2023-05-07T09:06:03;21.70;49.00
78649;DHT22;67962;47.310;9.642;2023-05-07T09:08:29;21.80;49.50
78649;DHT22;67962;47.310;9.642;2023-05-07T09:10:54;22.00;49.30
78649;DHT22;67962;47.310;9.642;2023-05-07T09:13:21;22.20;49.10
78649;DHT22;67962;47.310;9.642;2023-05-07T09:15:46;22.40;48.30
78649;DHT22;67962;47.310;9.642;2023-05-07T09:18:12;22.40;47.70
78649;DHT22;67962;47.310;9.642;2023-05-07T09:20:38;22.40;46.40
78649;DHT22;67962;47.310;9.642;2023-05-07T09:23:05;22.30;47.60
78649;DHT22;67962;47.310;9.642;2023-05-07T09:25:33;22.30;47.10
78649;DHT22;67962;47.310;9.642;2023-05-07T09:28:00;22.20;47.60
78649;DHT22;67962;47.310;9.642;2023-05-07T09:30:32;22.20;48.60
78649;DHT22;67962;47.310;9.642;2023-05-07T09:32:59;22.20;45.60
78649;DHT22;67962;47.310;9.642;2023-05-07T09:35:26;22.10;46.20
78649;DHT22;67962;47.310;9.642;2023-05-07T09:37:59;22.30;47.70
78649;DHT22;67962;47.310;9.642;2023-05-07T09:40:27;22.60;47.60
78649;DHT22;67962;47.310;9.642;2023-05-07T09:42:53;23.00;45.70
78649;DHT22;67962;47.310;9.642;2023-05-07T09:45:26;23.20;45.50
78649;DHT22;67962;47.310;9.642;2023-05-07T09:47:57;23.40;42.20
78649;DHT22;67962;47.310;9.642;2023-05-07T09:50:28;23.40;45.70
78649;DHT22;67962;47.310;9.642;2023-05-07T09:52:55;23.60;43.20
78649;DHT22;67962;47.310;9.642;2023-05-07T09:55:22;23.80;43.90
78649;DHT22;67962;47.310;9.642;2023-05-07T09:57:52;24.10;45.00
78649;DHT22;67962;47.310;9.642;2023-05-07T10:00:22;24.30;44.30
78649;DHT22;67962;47.310;9.642;2023-05-07T10:02:52;24.50;44.70
78649;DHT22;67962;47.310;9.642;2023-05-07T10:05:22;24.70;43.70
78649;DHT22;67962;47.310;9.642;2023-05-07T10:07:48;24.70;43.80
78649;DHT22;67962;47.310;9.642;2023-05-07T10:10:15;24.70;44.20
78649;DHT22;67962;47.310;9.642;2023-05-07T10:12:41;24.60;43.70
78649;DHT22;67962;47.310;9.642;2023-05-07T10:15:11;24.40;43.10
78649;DHT22;67962;47.310;9.642;2023-05-07T10:17:38;24.20;43.00
78649;DHT22;67962;47.310;9.642;2023-05-07T10:20:05;24.20;44.00
78649;DHT22;67962;47.310;9.642;2023-05-07T10:22:41;24.20;43.30
78649;DHT22;67962;47.310;9.642;2023-05-07T10:25:16;24.20;43.90
78649;DHT22;67962;47.310;9.642;2023-05-07T10:27:43;24.30;43.40
78649;DHT22;67962;47.310;9.642;2023-05-07T10:30:13;24.30;43.00
78649;DHT22;67962;47.310;9.642;2023-05-07T10:32:43;24.20;43.10
78649;DHT22;67962;47.310;9.642;2023-05-07T10:35:19;24.20;44.40
78649;DHT22;67962;47.310;9.642;2023-05-07T10:37:46;24.30;43.90
78649;DHT22;67962;47.310;9.642;2023-05-07T10:40:12;24.20;42.60
78649;DHT22;67962;47.310;9.642;2023-05-07T10:42:38;24.00;43.20
78649;DHT22;67962;47.310;9.642;2023-05-07T10:45:14;23.90;44.10
78649;DHT22;67962;47.310;9.642;2023-05-07T10:50:37;23.80;42.90
78649;DHT22;67962;47.310;9.642;2023-05-07T10:58:44;23.70;44.70
78649;DHT22;67962;47.310;9.642;2023-05-07T11:01:10;23.70;44.80
78649;DHT22;67962;47.310;9.642;2023-05-07T11:04:13;23.70;45.60
78649;DHT22;67962;47.310;9.642;2023-05-07T11:06:40;23.70;45.50
78649;DHT22;67962;47.310;9.642;2023-05-07T11:09:05;23.60;46.00
78649;DHT22;67962;47.310;9.642;2023-05-07T11:11:48;23.60;45.70
78649;DHT22;67962;47.310;9.642;2023-05-07T11:17:07;23.50;44.80
78649;DHT22;67962;47.310;9.642;2023-05-07T11:19:54;23.50;46.30
78649;DHT22;67962;47.310;9.642;2023-05-07T11:25:02;23.50;45.80
78649;DHT22;67962;47.310;9.642;2023-05-07T11:27:29;23.50;45.20
78649;DHT22;67962;47.310;9.642;2023-05-07T11:29:55;23.70;45.50
78649;DHT22;67962;47.310;9.642;2023-05-07T11:32:26;23.70;44.40
78649;DHT22;67962;47.310;9.642;2023-05-07T11:34:52;23.50;44.60
78649;DHT22;67962;47.310;9.642;2023-05-07T11:37:19;23.70;45.00
78649;DHT22;67962;47.310;9.642;2023-05-07T11:39:45;23.80;45.30
78649;DHT22;67962;47.310;9.642;2023-05-07T11:42:38;24.10;45.10
78649;DHT22;67962;47.310;9.642;2023-05-07T11:45:05;24.20;42.10
78649;DHT22;67962;47.310;9.642;2023-05-07T11:47:32;24.40;42.50
78649;DHT22;67962;47.310;9.642;2023-05-07T11:50:04;24.40;41.20
78649;DHT22;67962;47.310;9.642;2023-05-07T11:52:30;24.40;42.10
78649;DHT22;67962;47.310;9.642;2023-05-07T11:54:57;24.70;42.20
78649;DHT22;67962;47.310;9.642;2023-05-07T11:57:24;25.00;42.90
78649;DHT22;67962;47.310;9.642;2023-05-07T11:59:57;25.20;43.30
78649;DHT22;67962;47.310;9.642;2023-05-07T12:02:24;25.40;42.60
78649;DHT22;67962;47.310;9.642;2023-05-07T12:04:51;25.50;42.80
78649;DHT22;67962;47.310;9.642;2023-05-07T12:07:17;25.70;42.10
78649;DHT22;67962;47.310;9.642;2023-05-07T12:09:44;25.60;40.30
78649;DHT22;67962;47.310;9.642;2023-05-07T12:12:10;25.60;41.50
78649;DHT22;67962;47.310;9.642;2023-05-07T12:14:40;25.70;42.80
78649;DHT22;67962;47.310;9.642;2023-05-07T12:17:13;25.70;41.70
78649;DHT22;67962;47.310;9.642;2023-05-07T12:19:40;25.50;40.20
78649;DHT22;67962;47.310;9.642;2023-05-07T12:22:08;25.50;39.90
78649;DHT22;67962;47.310;9.642;2023-05-07T12:24:47;25.60;41.20
78649;DHT22;67962;47.310;9.642;2023-05-07T12:27:14;25.80;39.50
78649;DHT22;67962;47.310;9.642;2023-05-07T12:29:44;25.80;40.30
78649;DHT22;67962;47.310;9.642;2023-05-07T12:32:19;25.80;39.20
78649;DHT22;67962;47.310;9.642;2023-05-07T12:34:45;25.70;37.80
78649;DHT22;67962;47.310;9.642;2023-05-07T12:37:12;25.50;38.70
78649;DHT22;67962;47.310;9.642;2023-05-07T12:39:43;25.50;40.60
78649;DHT22;67962;47.310;9.642;2023-05-07T12:42:23;25.50;39.30
78649;DHT22;67962;47.310;9.642;2023-05-07T12:44:51;25.30;38.90
78649;DHT22;67962;47.310;9.642;2023-05-07T12:47:17;25.40;40.00
78649;DHT22;67962;47.310;9.642;2023-05-07T12:49:43;25.30;38.50
78649;DHT22;67962;47.310;9.642;2023-05-07T12:52:11;25.30;40.20
78649;DHT22;67962;47.310;9.642;2023-05-07T12:54:38;25.20;37.70
78649;DHT22;67962;47.310;9.642;2023-05-07T12:57:10;25.20;40.10
78649;DHT22;67962;47.310;9.642;2023-05-07T12:59:37;25.40;40.80
78649;DHT22;67962;47.310;9.642;2023-05-07T13:02:03;25.50;40.80
78649;DHT22;67962;47.310;9.642;2023-05-07T13:04:29;25.60;37.50
78649;DHT22;67962;47.310;9.642;2023-05-07T13:06:55;25.60;38.90
78649;DHT22;67962;47.310;9.642;2023-05-07T13:09:20;25.60;38.20
78649;DHT22;67962;47.310;9.642;2023-05-07T13:11:46;25.50;36.20
78649;DHT22;67962;47.310;9.642;2023-05-07T13:14:12;25.50;39.90
78649;DHT22;67962;47.310;9.642;2023-05-07T13:16:37;25.50;37.10
78649;DHT22;67962;47.310;9.642;2023-05-07T13:19:03;25.60;38.00
78649;DHT22;67962;47.310;9.642;2023-05-07T13:21:29;25.50;39.20
78649;DHT22;67962;47.310;9.642;2023-05-07T13:23:57;25.40;35.80
78649;DHT22;67962;47.310;9.642;2023-05-07T13:26:23;25.30;38.60
78649;DHT22;67962;47.310;9.642;2023-05-07T13:28:49;25.40;38.90
78649;DHT22;67962;47.310;9.642;2023-05-07T13:31:19;25.40;35.90
78649;DHT22;67962;47.310;9.642;2023-05-07T13:33:46;25.40;37.80
78649;DHT22;67962;47.310;9.642;2023-05-07T13:36:12;25.50;38.20
78649;DHT22;67962;47.310;9.642;2023-05-07T13:38:38;25.50;35.50
78649;DHT22;67962;47.310;9.642;2023-05-07T13:41:04;25.50;37.10
78649;DHT22;67962;47.310;9.642;2023-05-07T13:43:30;25.40;36.80
78649;DHT22;67962;47.310;9.642;2023-05-07T13:45:57;25.30;38.40
78649;DHT22;67962;47.310;9.642;2023-05-07T13:48:22;25.40;40.40
78649;DHT22;67962;47.310;9.642;2023-05-07T13:50:48;25.50;39.60
78649;DHT22;67962;47.310;9.642;2023-05-07T13:53:14;25.70;40.50
78649;DHT22;67962;47.310;9.642;2023-05-07T13:55:43;25.70;39.90
78649;DHT22;67962;47.310;9.642;2023-05-07T13:58:09;25.60;42.30
78649;DHT22;67962;47.310;9.642;2023-05-07T14:00:34;25.70;38.40
78649;DHT22;67962;47.310;9.642;2023-05-07T14:03:00;25.70;39.50
78649;DHT22;67962;47.310;9.642;2023-05-07T14:05:26;25.50;40.00
78649;DHT22;67962;47.310;9.642;2023-05-07T14:07:54;25.40;40.60
78649;DHT22;67962;47.310;9.642;2023-05-07T14:10:20;25.40;40.00
78649;DHT22;67962;47.310;9.642;2023-05-07T14:12:46;25.40;42.10
78649;DHT22;67962;47.310;9.642;2023-05-07T14:15:12;25.40;42.20
78649;DHT22;67962;47.310;9.642;2023-05-07T14:17:38;25.40;41.10
78649;DHT22;67962;47.310;9.642;2023-05-07T14:20:04;25.40;42.50
78649;DHT22;67962;47.310;9.642;2023-05-07T14:22:31;25.40;41.10
78649;DHT22;67962;47.310;9.642;2023-05-07T14:24:57;25.50;42.40
78649;DHT22;67962;47.310;9.642;2023-05-07T14:27:23;25.50;40.50
78649;DHT22;67962;47.310;9.642;2023-05-07T14:29:48;25.40;40.60
78649;DHT22;67962;47.310;9.642;2023-05-07T14:32:17;25.40;39.60
78649;DHT22;67962;47.310;9.642;2023-05-07T14:34:44;25.30;41.60
78649;DHT22;67962;47.310;9.642;2023-05-07T14:37:09;25.20;41.20
78649;DHT22;67962;47.310;9.642;2023-05-07T14:39:35;25.20;41.90
78649;DHT22;67962;47.310;9.642;2023-05-07T14:42:01;25.20;42.10
78649;DHT22;67962;47.310;9.642;2023-05-07T14:44:27;25.00;41.40
78649;DHT22;67962;47.310;9.642;2023-05-07T14:46:52;25.00;42.10
78649;DHT22;67962;47.310;9.642;2023-05-07T14:49:18;24.80;42.20
78649;DHT22;67962;47.310;9.642;2023-05-07T14:51:44;24.70;43.30
78649;DHT22;67962;47.310;9.642;2023-05-07T14:54:11;24.50;42.90
78649;DHT22;67962;47.310;9.642;2023-05-07T14:56:37;24.40;42.40
78649;DHT22;67962;47.310;9.642;2023-05-07T14:59:03;24.30;43.80
78649;DHT22;67962;47.310;9.642;2023-05-07T15:01:29;24.10;43.40
78649;DHT22;67962;47.310;9.642;2023-05-07T15:03:55;24.00;43.50
78649;DHT22;67962;47.310;9.642;2023-05-07T15:06:21;23.80;45.20
78649;DHT22;67962;47.310;9.642;2023-05-07T15:08:47;23.70;45.30
78649;DHT22;67962;47.310;9.642;2023-05-07T15:11:14;23.60;45.90
78649;DHT22;67962;47.310;9.642;2023-05-07T15:13:41;23.60;45.30
78649;DHT22;67962;47.310;9.642;2023-05-07T15:16:07;23.30;46.20
78649;DHT22;67962;47.310;9.642;2023-05-07T15:18:33;23.10;47.00
78649;DHT22;67962;47.310;9.642;2023-05-07T15:20:58;23.10;47.20
78649;DHT22;67962;47.310;9.642;2023-05-07T15:23:24;23.10;46.60
78649;DHT22;67962;47.310;9.642;2023-05-07T15:25:51;23.00;46.80
78649;DHT22;67962;47.310;9.642;2023-05-07T15:28:17;22.90;47.80
78649;DHT22;67962;47.310;9.642;2023-05-07T15:30:43;22.80;47.80
78649;DHT22;67962;47.310;9.642;2023-05-07T15:33:09;22.70;48.10
78649;DHT22;67962;47.310;9.642;2023-05-07T15:35:35;22.60;49.00
78649;DHT22;67962;47.310;9.642;2023-05-07T15:38:00;22.60;48.30
78649;DHT22;67962;47.310;9.642;2023-05-07T15:40:28;22.60;48.70
78649;DHT22;67962;47.310;9.642;2023-05-07T15:42:55;22.60;48.60